Navarre, Minnesota
Current Conditions -  °F | °C
As of 5:05 PM on Friday 19 Dec 2014 (Local Time) from KFCM Reporting Station
Haze Haze  
Wind Chill: 21°   Ceiling: 2600
Heat Index: 30°   Visibility: 6mi
Dew Point: 25°   Wind: 12mph
Humidity: 82%   Direction: 160°SSE
Pressure: 30.17"   Gusts: NA
Location:  44.94°N, 93.61°W
Report Text: KFCM 192305Z 16010KT 6SM HZ SCT013 OVC026 M01/M04 A3017 RMK AO2 T10111039
Loading
Personal Weather Stations






























Interactive Weather Map New forecast layout! Learn more

10-Day Weather Forecast

Advertisements
Track Severe Weather on mobile